Latest Weather Observations for Cape Byron

IDN60801

Issued at 9:35 am EDT Friday 21 November 2014 (issued every 30 minutes, with the page automatically refreshed every 10 minutes)

About weather observations | Map of weather stations | Latest weather observations for NSW | Other Formats
Station Details ID: 058216 Name: CAPE BYRON AWS Lat: -28.64 Lon: 153.64 Height: 95.0 m
Data from the previous 72 hours. | See also: Recent months at Cape Byron
Date/Time
EDT
Temp
°C
App
Temp
°C
Dew
Point
Rel
Hum
%
Delta-T
°C
Wind Press
QNH
hPa
Press
MSL
hPa
Rain
since 9 am
mm
Dir
 
Spd
km/h
Gust
km/h
Spd
kts
Gust
kts
21/09:30am 23.3 19.5 20.6 85 1.8 N 41 52 22 28 1014.7 1014.3 0.0
21/09:00am 22.9 19.0 20.4 86 1.6 N 41 56 22 30 1014.8 1014.4 0.0
21/08:30am 22.7 18.8 20.4 87 1.5 N 41 56 22 30 1014.8 1014.4 0.0
21/08:12am 22.4 18.1 20.3 88 1.4 N 43 61 23 33 1014.8 1014.4 0.0
21/08:00am 22.3 18.4 20.4 89 1.2 N 41 56 22 30 1014.8 1014.4 0.0
21/07:31am 21.9 19.6 20.2 90 1.1 N 32 50 17 27 1014.9 1014.6 0.0
21/07:30am 21.9 19.6 20.2 90 1.1 N 32 43 17 23 1014.9 1014.6 0.0
21/07:00am 21.9 19.0 20.0 89 1.2 N 35 46 19 25 1014.4 1014.0 0.0
21/06:30am 21.8 18.3 20.3 91 1.0 N 39 52 21 28 1014.0 1013.6 0.0
21/06:00am 21.6 18.8 20.2 92 0.9 N 35 48 19 26 1014.0 1013.6 0.0
21/05:30am 21.5 19.2 20.1 92 0.9 N 32 43 17 23 1014.2 1013.8 0.0
21/05:00am 21.5 19.1 20.3 93 0.8 N 33 44 18 24 1013.8 1013.4 0.0
21/04:30am 21.6 19.4 20.4 93 0.8 N 32 44 17 24 1013.5 1013.1 0.0
21/04:00am 21.7 18.5 20.3 92 0.9 N 37 50 20 27 1013.2 1012.8 0.0
21/03:30am 21.8 18.7 20.4 92 0.9 N 37 56 20 30 1013.4 1013.0 0.0
21/03:05am 21.8 19.6 20.4 92 0.9 N 32 50 17 27 1013.6 1013.2 0.0
21/03:00am 21.8 19.6 20.4 92 0.9 N 32 46 17 25 1013.7 1013.3 0.0
21/02:30am 21.8 19.4 20.4 92 0.9 N 33 44 18 24 1013.9 1013.5 0.0
21/02:00am 21.8 19.6 20.4 92 0.9 N 32 44 17 24 1014.3 1013.9 0.0
21/01:30am 21.7 19.5 20.3 92 0.9 N 32 43 17 23 1014.5 1014.1 0.0
21/01:00am 21.8 19.4 20.3 91 1.0 N 33 43 18 23 1014.9 1014.6 0.0
21/12:30am 21.9 19.2 20.4 91 1.0 N 35 50 19 27 1015.1 1014.8 0.0
21/12:00am 21.8 19.3 20.1 90 1.1 N 33 43 18 23 1015.7 1015.4 0.0
 
Date/Time
EDT
Temp
°C
App
Temp
°C
Dew
Point
Rel
Hum
%
Delta-T
°C
Wind Press
QNH
hPa
Press
MSL
hPa
Rain
since 9 am
mm
Dir
 
Spd
km/h
Gust
km/h
Spd
kts
Gust
kts
20/11:30pm 21.9 19.6 20.2 90 1.1 N 32 44 17 24 1016.3 1015.9 0.0
20/11:00pm 22.0 19.3 20.5 91 1.0 N 35 46 19 25 1016.0 1015.7 0.0
20/10:30pm 22.0 19.7 20.5 91 1.0 N 33 44 18 24 1016.0 1015.7 0.0
20/10:00pm 22.3 19.7 20.6 90 1.1 N 35 48 19 26 1015.8 1015.5 0.0
20/09:30pm 22.3 18.8 20.4 89 1.2 N 39 50 21 27 1015.4 1015.1 0.0
20/09:00pm 22.1 20.2 20.2 89 1.2 N 30 41 16 22 1015.6 1015.3 0.0
20/08:30pm 22.2 20.0 20.3 89 1.2 N 32 41 17 22 1015.6 1015.3 0.0
20/08:00pm 22.4 20.0 20.3 88 1.4 N 33 50 18 27 1015.1 1014.8 0.0
20/07:30pm 22.6 19.7 20.1 86 1.6 N 35 46 19 25 1014.7 1014.3 0.0
20/07:00pm 22.8 19.9 20.1 85 1.7 NNE 35 50 19 27 1014.2 1013.8 0.0
20/06:30pm 23.0 20.2 20.3 85 1.8 N 35 50 19 27 1014.3 1013.9 0.0
20/06:00pm 23.0 19.7 20.0 83 1.9 N 37 50 20 27 1014.1 1013.7 0.0
20/05:37pm 23.4 20.5 20.0 81 2.2 NNE 35 54 19 29 1014.0 1013.6 0.0
20/05:30pm 23.6 21.2 20.3 82 2.1 NNE 33 48 18 26 1014.1 1013.7 0.0
20/05:00pm 24.0 22.2 20.3 80 2.4 NNE 30 48 16 26 1014.3 1013.9 0.0
20/04:50pm 24.1 21.8 20.2 79 2.5 NNE 32 50 17 27 1014.3 1013.9 0.0
20/04:30pm 24.3 22.1 20.4 79 2.5 NNE 32 44 17 24 1014.5 1014.1 0.0
20/04:00pm 24.4 22.1 20.1 77 2.8 NNE 32 44 17 24 1014.7 1014.3 0.0
20/03:30pm 24.6 22.2 19.9 75 3.0 NNE 32 44 17 24 1014.9 1014.6 0.0
20/03:00pm 24.8 22.3 19.8 74 3.2 NNE 32 50 17 27 1015.4 1015.1 0.0
20/02:49pm 24.7 23.1 20.0 75 3.1 NNE 28 46 15 25 1015.5 1015.2 0.0
20/02:30pm 24.9 23.8 20.2 75 3.1 NNE 26 44 14 24 1015.7 1015.4 0.0
20/02:00pm 25.1 22.8 20.1 74 3.3 NE 32 48 17 26 1015.8 1015.5 0.0
20/01:30pm 25.1 22.1 19.9 73 3.4 NE 35 50 19 27 1016.3 1015.9 0.0
20/01:00pm 24.9 22.8 19.7 73 3.4 NE 30 46 16 25 1016.7 1016.3 0.0
20/12:56pm 25.0 23.2 19.6 72 3.5 NE 28 46 15 25 1016.8 1016.4 0.0
20/12:30pm 24.9 23.4 19.5 72 3.5 NNE 26 37 14 20 1017.1 1016.7 0.0
20/12:00pm 24.4 22.2 18.6 70 3.7 NNE 28 39 15 21 1017.6 1017.2 0.0
20/11:30am 24.4 22.7 19.0 72 3.5 NNE 26 39 14 21 1018.1 1017.7 0.0
20/11:00am 24.4 23.4 19.7 75 3.0 NNE 24 35 13 19 1018.6 1018.2 0.0
20/10:30am 24.6 24.5 19.9 75 3.0 N 20 30 11 16 1018.9 1018.5 0.0
20/10:00am 24.0 23.8 19.3 75 3.0 N 19 26 10 14 1018.7 1018.3 0.0
20/09:30am 23.8 23.7 19.5 77 2.8 N 19 26 10 14 1018.6 1018.2 0.0
20/09:00am 23.0 22.6 19.0 78 2.5 N 19 24 10 13 1018.7 1018.3 2.2
20/08:30am 22.6 22.9 18.8 79 2.4 N 15 20 8 11 1018.6 1018.2 2.2
20/08:00am 21.7 22.3 18.5 82 2.0 N 13 17 7 9 1018.5 1018.1 2.2
20/07:30am 21.5 22.9 18.7 84 1.8 N 9 15 5 8 1018.5 1018.1 2.2
20/07:00am 21.0 22.7 18.6 86 1.5 N 7 11 4 6 1018.0 1017.6 2.2
20/06:30am 20.5 22.4 18.6 89 1.2 NNW 6 9 3 5 1017.7 1017.3 2.2
20/06:00am 20.5 22.4 18.6 89 1.2 N 6 9 3 5 1017.5 1017.1 2.2
20/05:30am 21.0 22.9 18.9 88 1.3 NNW 7 17 4 9 1017.4 1017.0 2.2
20/05:00am 20.9 22.2 19.4 91 1.0 N 11 19 6 10 1017.1 1016.7 2.2
20/04:30am 20.9 21.9 19.4 91 1.0 N 13 17 7 9 1016.8 1016.4 2.2
20/04:00am 20.9 22.9 19.2 90 1.1 NNW 7 9 4 5 1016.7 1016.3 2.2
20/03:30am 21.2 22.6 19.5 90 1.1 N 11 15 6 8 1016.6 1016.2 2.2
20/03:00am 21.3 23.4 19.4 89 1.2 NE 7 11 4 6 1016.4 1016.0 2.2
20/02:30am 21.7 23.6 19.8 89 1.2 WNW 9 19 5 10 1016.7 1016.3 2.2
20/02:00am 21.9 21.8 20.0 89 1.2 N 20 28 11 15 1016.6 1016.2 2.2
20/01:30am 22.2 22.5 20.5 90 1.1 N 19 24 10 13 1016.9 1016.5 2.2
20/01:00am 22.5 22.7 20.6 89 1.2 N 20 28 11 15 1016.9 1016.5 2.2
20/12:30am 22.8 22.2 20.5 87 1.5 NNE 24 32 13 17 1017.4 1017.0 2.2
20/12:22am 22.8 22.2 20.5 87 1.5 NNE 24 37 13 20 1017.5 1017.1 2.2
20/12:00am 22.6 18.5 20.7 89 1.2 NE 43 50 23 27 1017.5 1017.1 2.2
 
Date/Time
EDT
Temp
°C
App
Temp
°C
Dew
Point
Rel
Hum
%
Delta-T
°C
Wind Press
QNH
hPa
Press
MSL
hPa
Rain
since 9 am
mm
Dir
 
Spd
km/h
Gust
km/h
Spd
kts
Gust
kts
19/11:30pm 22.3 17.6 20.6 90 1.1 ENE 46 61 25 33 1017.4 1017.0 2.2
19/11:25pm 22.6 19.0 20.9 90 1.1 ENE 41 61 22 33 1017.5 1017.1 2.2
19/11:00pm 22.5 18.4 20.8 90 1.1 ENE 43 54 23 29 1017.8 1017.4 2.2
19/10:30pm 22.7 17.8 21.0 90 1.1 ENE 48 57 26 31 1017.9 1017.5 2.2
19/10:00pm 22.7 19.5 21.0 90 1.1 ENE 39 50 21 27 1018.0 1017.6 2.2
19/09:30pm 22.7 18.7 21.2 91 1.0 NE 44 50 24 27 1017.6 1017.2 2.2
19/09:00pm 22.6 19.4 21.1 91 1.0 ENE 39 52 21 28 1017.1 1016.7 2.2
19/08:30pm 22.8 19.0 21.3 91 1.0 ENE 43 50 23 27 1017.3 1016.9 2.0
19/08:00pm 22.8 20.9 21.3 91 1.0 NE 33 43 18 23 1017.6 1017.2 2.0
19/07:30pm 22.8 20.0 21.1 90 1.1 ENE 37 46 20 25 1017.1 1016.7 1.4
19/07:00pm 22.7 22.0 21.0 90 1.1 ENE 26 39 14 21 1016.7 1016.3 1.4
19/06:30pm 22.9 23.0 21.2 90 1.1 E 22 33 12 18 1016.5 1016.1 1.4
19/06:00pm 23.0 23.5 21.1 89 1.2 E 20 32 11 17 1015.9 1015.6 1.2
19/05:30pm 23.3 23.7 21.0 87 1.5 E 20 32 11 17 1016.5 1016.1 1.0
19/05:00pm 24.2 24.4 21.3 84 1.9 E 22 33 12 18 1016.4 1016.0 0.6
19/04:30pm 25.6 26.6 21.1 76 3.0 E 17 26 9 14 1016.3 1015.9 0.4
19/04:00pm 26.5 27.2 21.5 74 3.3 E 20 26 11 14 1016.4 1016.0 0.4
19/03:30pm 25.6 26.1 20.8 75 3.2 E 19 26 10 14 1016.9 1016.5 0.4
19/03:00pm 26.8 27.4 21.3 72 3.7 E 20 28 11 15 1017.3 1016.9 0.4
19/02:30pm 26.3 27.2 20.8 71 3.6 E 17 26 9 14 1017.7 1017.3 0.4
19/02:00pm 25.7 25.6 20.0 71 3.7 E 20 26 11 14 1018.0 1017.6 0.4
19/01:30pm 27.4 27.9 21.2 69 4.1 E 20 26 11 14 1018.2 1017.8 0.4
19/01:00pm 26.1 26.6 20.9 73 3.4 E 19 24 10 13 1018.8 1018.4 0.4
19/12:30pm 26.2 26.9 21.6 76 3.1 E 20 24 11 13 1018.9 1018.5 0.4
19/12:00pm 25.2 27.2 22.3 84 1.9 E 15 20 8 11 1019.2 1018.8 0.2
19/11:30am 23.7 24.6 20.8 84 1.9 E 17 20 9 11 1019.4 1019.0 0.2
19/11:00am 24.5 26.7 20.4 78 2.7 E 9 11 5 6 1019.7 1019.3 0.0
19/10:30am 25.4 26.7 20.9 76 3.0 E 15 20 8 11 1019.7 1019.3 0.0
19/10:00am 24.5 25.4 20.8 80 2.4 E 17 22 9 12 1019.8 1019.4 0.0
19/09:30am 23.9 24.6 21.2 85 1.8 E 19 28 10 15 1019.4 1019.0 0.0
19/09:00am 23.7 24.4 21.6 88 1.4 E 20 30 11 16 1019.3 1018.9 15.2
19/08:30am 23.1 22.6 21.4 90 1.1 E 26 35 14 19 1018.9 1018.5 15.2
19/08:00am 22.7 22.3 21.0 90 1.1 E 24 33 13 18 1018.7 1018.3 15.2
19/07:30am 22.8 23.0 21.3 91 1.0 E 22 33 12 18 1018.3 1017.9 15.2
19/07:00am 21.9 22.1 20.5 92 0.9 E 20 32 11 17 1017.9 1017.5 15.2
19/06:30am 21.6 22.2 20.2 92 0.9 E 17 22 9 12 1017.4 1017.0 15.2
19/06:00am 22.1 23.7 20.7 92 0.9 ESE 13 20 7 11 1017.2 1016.8 15.2
19/05:30am 22.4 24.2 21.2 93 0.8 E 13 20 7 11 1016.8 1016.4 15.2
19/05:00am 22.2 23.2 21.0 93 0.8 E 17 20 9 11 1016.5 1016.1 15.2
19/04:30am 22.4 23.5 21.2 93 0.8 E 17 22 9 12 1016.1 1015.8 15.0
19/04:00am 22.5 23.3 21.3 93 0.8 E 19 24 10 13 1016.1 1015.8 15.0
19/03:30am 22.6 24.1 21.2 92 0.9 E 15 22 8 12 1016.1 1015.8 15.0
19/03:00am 22.6 24.1 21.2 92 0.9 E 15 22 8 12 1016.5 1016.1 15.0
19/02:30am 22.5 23.9 21.1 92 0.9 E 15 20 8 11 1016.7 1016.3 15.0
19/02:00am 21.9 21.7 20.5 92 0.9 NE 22 24 12 13 1016.8 1016.4 15.0
19/01:30am 22.8 23.4 21.4 92 0.9 ENE 20 28 11 15 1017.1 1016.7 15.0
19/01:00am 22.9 22.4 21.4 91 1.0 ENE 26 39 14 21 1017.4 1017.0 11.4
19/12:30am 23.1 23.7 21.4 90 1.1 E 20 30 11 16 1017.6 1017.2 0.0
19/12:00am 23.3 23.3 21.6 90 1.1 ENE 24 30 13 16 1017.6 1017.2 0.0
 
Date/Time
EDT
Temp
°C
App
Temp
°C
Dew
Point
Rel
Hum
%
Delta-T
°C
Wind Press
QNH
hPa
Press
MSL
hPa
Rain
since 9 am
mm
Dir
 
Spd
km/h
Gust
km/h
Spd
kts
Gust
kts
18/11:30pm 23.2 23.1 21.5 90 1.1 ENE 24 32 13 17 1017.6 1017.2 0.0
18/11:00pm 23.2 23.1 21.5 90 1.1 ENE 24 30 13 16 1017.6 1017.2 0.0
18/10:30pm 23.3 21.1 21.4 89 1.3 NE 35 41 19 22 1017.1 1016.7 0.0
18/10:00pm 23.3 21.1 21.4 89 1.3 NE 35 41 19 22 1017.0 1016.6 0.0
18/09:30pm 23.2 20.9 21.3 89 1.3 NE 35 43 19 23 1016.6 1016.2 0.0
18/09:00pm 23.1 20.0 21.2 89 1.2 NE 39 50 21 27 1015.9 1015.6 0.0
18/08:30pm 23.0 19.8 21.1 89 1.2 NE 39 50 21 27 1015.9 1015.6 0.0
18/08:00pm 23.1 19.1 21.0 88 1.4 NE 43 52 23 28 1015.1 1014.8 0.0
18/07:30pm 23.1 18.5 20.8 87 1.5 NE 46 56 25 30 1014.6 1014.2 0.0
18/07:00pm 23.4 19.2 20.9 86 1.6 NE 44 50 24 27 1014.7 1014.3 0.0
18/06:30pm 23.5 19.3 20.6 84 1.9 NE 43 48 23 26 1014.2 1013.8 0.0
18/06:00pm 23.6 19.4 20.5 83 2.0 NE 43 46 23 25 1013.5 1013.1 0.0
18/05:30pm 24.1 19.9 20.6 81 2.3 NE 43 48 23 26 1013.3 1012.9 0.0
18/05:00pm 24.8 20.6 20.5 77 2.8 NE 43 48 23 26 1013.1 1012.7 0.0
18/04:30pm 24.6 20.3 20.3 77 2.8 NE 43 50 23 27 1013.2 1012.8 0.0
18/04:00pm 25.4 20.5 20.2 73 3.4 NE 46 52 25 28 1013.4 1013.0 0.0
18/03:30pm 26.9 23.7 21.0 70 3.9 ENE 39 43 21 23 1014.2 1013.8 0.0
18/03:00pm 27.1 24.0 21.2 70 3.9 ENE 39 43 21 23 1014.4 1014.0 0.0
18/02:30pm 24.8 21.2 20.1 75 3.1 NE 39 44 21 24 1014.7 1014.3 0.0
18/02:00pm 25.6 21.4 19.0 67 4.2 NE 39 43 21 23 1015.0 1014.7 0.0
18/01:30pm 28.0 25.6 20.3 63 5.1 NE 33 39 18 21 1015.6 1015.3 0.0
18/01:00pm 26.9 25.3 20.7 69 4.1 NE 30 32 16 17 1016.0 1015.7 0.0
18/12:30pm 27.8 27.4 20.1 63 5.1 ENE 22 26 12 14 1016.6 1016.2 0.0
18/12:00pm 28.4 29.1 21.2 65 4.8 ENE 19 20 10 11 1017.3 1016.9 0.0
18/11:30am 26.5 27.9 21.0 72 3.6 ENE 15 19 8 10 1017.5 1017.1 0.0
18/11:00am 24.3 24.0 19.1 73 3.3 NE 19 24 10 13 1017.6 1017.2 0.0
18/10:30am 23.8 24.4 19.5 77 2.8 NE 15 19 8 10 1017.7 1017.3 0.0
18/10:00am 22.9 23.3 18.9 78 2.5 NE 15 20 8 11 1017.8 1017.4 0.0

Other Formats:

Comma delimited format used in spreadsheet applications
http://www.bom.gov.au/fwo/IDN60801/IDN60801.94599.axf

JavaScript Object Notation format (JSON) in row-major order
http://www.bom.gov.au/fwo/IDN60801/IDN60801.94599.json